Albany, Missouri
Current Conditions -  °F | °C
As of 7:53 PM on Wednesday 26 Nov 2014 (Local Time) from KLWD Reporting Station
Overcast Overcast  
Wind Chill: 15°   Ceiling: 1000
Heat Index: 28°   Visibility: 10mi
Dew Point: 25°   Wind: 18mph
Humidity: 88%   Direction: 340°NNW
Pressure: 30.24"   Gusts: 26mph
Location:  40.25°N, 94.33°W
Report Text: KLWD 270153Z AUTO 34016G23KT 10SM OVC010 M02/M04 A3024 RMK AO2 SLP254 T10221039
Loading
Personal Weather Stations






























Interactive Weather Map New forecast layout! Learn more

10-Day Weather Forecast

Advertisements
Track Severe Weather on mobile